createdAt,value
2022-09-27T00:00:30.531Z,16.58
2022-09-27T00:01:30.631Z,16.66
2022-09-27T00:02:30.557Z,16.66
2022-09-27T00:03:30.528Z,16.64
2022-09-27T00:04:30.531Z,16.61
2022-09-27T00:05:30.525Z,16.67
2022-09-27T00:06:30.527Z,16.71
2022-09-27T00:07:30.522Z,16.61
2022-09-27T00:08:30.522Z,16.63
2022-09-27T00:09:30.524Z,16.60
2022-09-27T00:10:30.549Z,16.63
2022-09-27T00:11:30.526Z,16.64
2022-09-27T00:12:30.526Z,16.48
2022-09-27T00:13:30.525Z,16.56
2022-09-27T00:14:30.523Z,16.61
2022-09-27T00:15:30.525Z,16.60
2022-09-27T00:16:30.616Z,16.63
2022-09-27T00:17:30.521Z,16.61
2022-09-27T00:18:30.519Z,16.63
2022-09-27T00:19:30.522Z,16.64
2022-09-27T00:20:30.517Z,16.68
2022-09-27T00:21:30.520Z,16.67
2022-09-27T00:22:30.516Z,16.66
2022-09-27T00:23:30.520Z,16.63
2022-09-27T00:24:30.527Z,16.67
2022-09-27T00:25:30.522Z,16.58
2022-09-27T00:26:30.540Z,16.64
2022-09-27T00:27:30.515Z,16.64
2022-09-27T00:28:30.517Z,16.52
2022-09-27T00:29:30.513Z,16.48
2022-09-27T00:30:30.520Z,16.38
2022-09-27T00:31:30.613Z,16.38
2022-09-27T00:32:30.515Z,16.50
2022-09-27T00:33:30.574Z,16.48
2022-09-27T00:34:30.513Z,16.48
2022-09-27T00:35:30.512Z,16.52
2022-09-27T00:36:30.516Z,16.50
2022-09-27T00:37:30.512Z,16.50
2022-09-27T00:38:30.513Z,16.53
2022-09-27T00:39:30.511Z,16.48
2022-09-27T00:40:30.612Z,16.53
2022-09-27T00:41:30.525Z,16.43
2022-09-27T00:42:30.534Z,16.46
2022-09-27T00:43:30.508Z,16.49
2022-09-27T00:44:30.510Z,16.52
2022-09-27T00:45:30.511Z,16.38
2022-09-27T00:46:30.554Z,16.49
2022-09-27T00:47:30.510Z,16.48
2022-09-27T00:48:30.513Z,16.53
2022-09-27T00:49:30.507Z,16.49
2022-09-27T00:50:30.504Z,16.49
2022-09-27T00:51:30.508Z,16.49
2022-09-27T00:52:30.505Z,16.41
2022-09-27T00:53:30.503Z,16.45
2022-09-27T00:54:30.506Z,16.56
2022-09-27T00:55:30.505Z,16.49
2022-09-27T00:56:30.502Z,16.48
2022-09-27T00:57:30.513Z,16.50
2022-09-27T00:58:30.534Z,16.56
2022-09-27T00:59:30.503Z,16.66
2022-09-27T01:00:30.504Z,16.56
2022-09-27T01:01:30.691Z,16.63
2022-09-27T01:02:30.529Z,16.64
2022-09-27T01:03:30.500Z,16.50
2022-09-27T01:04:30.505Z,16.45
2022-09-27T01:05:30.500Z,16.48
2022-09-27T01:06:30.504Z,16.49
2022-09-27T01:07:30.500Z,16.49
2022-09-27T01:08:30.496Z,16.49
2022-09-27T01:09:30.500Z,16.41
2022-09-27T01:10:30.504Z,16.43
2022-09-27T01:11:30.498Z,16.43
2022-09-27T01:12:30.494Z,16.42
2022-09-27T01:13:30.500Z,16.46
2022-09-27T01:14:30.519Z,16.38
2022-09-27T01:15:30.559Z,16.39
2022-09-27T01:16:30.492Z,16.39
2022-09-27T01:17:30.496Z,16.35
2022-09-27T01:18:30.498Z,16.43
2022-09-27T01:19:30.493Z,16.34
2022-09-27T01:20:30.498Z,16.35
2022-09-27T01:21:30.495Z,16.50
2022-09-27T01:22:30.492Z,16.41
2022-09-27T01:23:30.489Z,16.50
2022-09-27T01:24:30.491Z,16.53
2022-09-27T01:25:30.491Z,16.56
2022-09-27T01:26:30.492Z,16.60
2022-09-27T01:27:30.486Z,16.46
2022-09-27T01:28:30.485Z,16.52
2022-09-27T01:29:30.490Z,16.61
2022-09-27T01:30:30.511Z,16.57
2022-09-27T01:31:30.599Z,16.60
2022-09-27T01:32:30.490Z,16.52
2022-09-27T01:33:30.491Z,16.50
2022-09-27T01:34:30.488Z,16.42
2022-09-27T01:35:30.486Z,16.46
2022-09-27T01:36:30.485Z,16.35
2022-09-27T01:37:30.495Z,16.31
2022-09-27T01:38:30.487Z,16.52
2022-09-27T01:39:30.486Z,16.50
2022-09-27T01:40:30.550Z,16.49
2022-09-27T01:41:30.487Z,16.43
2022-09-27T01:42:30.481Z,16.43
2022-09-27T01:43:30.481Z,16.46
2022-09-27T01:44:30.484Z,16.56
2022-09-27T01:45:30.482Z,16.50
2022-09-27T01:46:30.604Z,16.52
2022-09-27T01:47:30.483Z,16.49
2022-09-27T01:48:30.482Z,16.49
2022-09-27T01:49:30.482Z,16.46
2022-09-27T01:50:30.486Z,16.41
2022-09-27T01:51:30.477Z,16.63
2022-09-27T01:52:30.477Z,16.61
2022-09-27T01:53:30.476Z,16.56
2022-09-27T01:54:30.476Z,16.64
2022-09-27T01:55:30.481Z,16.57
2022-09-27T01:56:30.479Z,16.64
2022-09-27T01:57:30.480Z,16.57
2022-09-27T01:58:30.475Z,16.60
2022-09-27T01:59:30.478Z,16.57
2022-09-27T02:00:30.473Z,16.60
2022-09-27T02:01:30.535Z,16.57
2022-09-27T02:02:30.598Z,16.41
2022-09-27T02:03:30.475Z,16.60
2022-09-27T02:04:30.473Z,16.60
2022-09-27T02:05:30.472Z,16.56
2022-09-27T02:06:30.471Z,16.57
2022-09-27T02:07:30.475Z,16.61
2022-09-27T02:08:30.465Z,16.60
2022-09-27T02:09:30.468Z,16.67
2022-09-27T02:10:30.471Z,16.58
2022-09-27T02:11:30.472Z,16.58
2022-09-27T02:12:30.467Z,16.64
2022-09-27T02:13:30.469Z,16.60
2022-09-27T02:14:30.467Z,16.57
2022-09-27T02:15:30.569Z,16.68
2022-09-27T02:16:30.467Z,16.61
2022-09-27T02:17:30.464Z,16.70
2022-09-27T02:18:30.492Z,16.78
2022-09-27T02:19:30.465Z,16.83
2022-09-27T02:20:30.473Z,16.78
2022-09-27T02:21:30.466Z,16.86
2022-09-27T02:22:30.473Z,16.78
2022-09-27T02:23:30.463Z,16.81
2022-09-27T02:24:30.466Z,16.85
2022-09-27T02:25:30.465Z,16.64
2022-09-27T02:26:30.460Z,16.67
2022-09-27T02:27:30.464Z,16.81
2022-09-27T02:28:30.459Z,16.70
2022-09-27T02:29:30.461Z,16.68
2022-09-27T02:30:30.544Z,16.76
2022-09-27T02:31:30.510Z,16.75
2022-09-27T02:32:30.461Z,16.83
2022-09-27T02:33:30.513Z,16.83
2022-09-27T02:34:30.479Z,16.81
2022-09-27T02:35:30.457Z,16.88
2022-09-27T02:36:30.455Z,16.85
2022-09-27T02:37:30.456Z,16.91
2022-09-27T02:38:30.460Z,17.03
2022-09-27T02:39:30.456Z,17.03
2022-09-27T02:40:30.538Z,16.89
2022-09-27T02:41:30.452Z,16.94
2022-09-27T02:42:30.458Z,17.00
2022-09-27T02:43:30.454Z,16.88
2022-09-27T02:44:30.460Z,16.91
2022-09-27T02:45:30.452Z,16.86
2022-09-27T02:46:30.578Z,16.91
2022-09-27T02:47:30.453Z,17.00
2022-09-27T02:48:30.452Z,16.97
2022-09-27T02:49:30.451Z,16.86
2022-09-27T02:50:30.472Z,17.00
2022-09-27T02:51:30.450Z,17.03
2022-09-27T02:52:30.448Z,16.93
2022-09-27T02:53:30.450Z,16.82
2022-09-27T02:54:30.448Z,16.91
2022-09-27T02:55:30.449Z,16.82
2022-09-27T02:56:30.453Z,16.94
2022-09-27T02:57:30.452Z,16.91
2022-09-27T02:58:30.450Z,16.86
2022-09-27T02:59:30.450Z,16.88
2022-09-27T03:00:30.442Z,16.86
2022-09-27T03:01:30.543Z,16.86
2022-09-27T03:02:30.512Z,16.85
2022-09-27T03:03:30.441Z,16.88
2022-09-27T03:04:30.449Z,16.88
2022-09-27T03:05:30.447Z,16.86
2022-09-27T03:06:30.463Z,16.89
2022-09-27T03:07:30.445Z,16.86
2022-09-27T03:08:30.446Z,16.88
2022-09-27T03:09:30.443Z,16.82
2022-09-27T03:10:30.445Z,16.88
2022-09-27T03:11:30.442Z,16.85
2022-09-27T03:12:30.440Z,16.89
2022-09-27T03:13:30.445Z,16.89
2022-09-27T03:14:30.441Z,16.82
2022-09-27T03:15:30.441Z,16.91
2022-09-27T03:16:30.517Z,16.83
2022-09-27T03:17:30.439Z,16.86
2022-09-27T03:18:30.438Z,16.86
2022-09-27T03:19:30.440Z,16.81
2022-09-27T03:20:30.442Z,16.73
2022-09-27T03:21:30.437Z,16.76
2022-09-27T03:22:30.459Z,16.73
2022-09-27T03:23:30.438Z,16.82
2022-09-27T03:24:30.436Z,16.82
2022-09-27T03:25:30.435Z,16.86
2022-09-27T03:26:30.431Z,16.86
2022-09-27T03:27:30.432Z,16.85
2022-09-27T03:28:30.432Z,16.75
2022-09-27T03:29:30.436Z,16.78
2022-09-27T03:30:30.480Z,16.85
2022-09-27T03:31:30.636Z,16.86
2022-09-27T03:32:30.432Z,16.89
2022-09-27T03:33:30.483Z,16.81
2022-09-27T03:34:30.429Z,16.82
2022-09-27T03:35:30.432Z,16.76
2022-09-27T03:36:30.427Z,16.85
2022-09-27T03:37:30.426Z,16.71
2022-09-27T03:38:30.449Z,16.75
2022-09-27T03:39:30.427Z,16.73
2022-09-27T03:40:30.479Z,16.93
2022-09-27T03:41:30.431Z,16.78
2022-09-27T03:42:30.425Z,16.83
2022-09-27T03:43:30.425Z,16.89
2022-09-27T03:44:30.423Z,16.85
2022-09-27T03:45:30.427Z,16.79
2022-09-27T03:46:30.494Z,16.63
2022-09-27T03:47:30.425Z,16.58
2022-09-27T03:48:30.427Z,16.52
2022-09-27T03:49:30.423Z,16.56
2022-09-27T03:50:30.434Z,16.49
2022-09-27T03:51:30.423Z,16.43
2022-09-27T03:52:30.419Z,16.46
2022-09-27T03:53:30.423Z,16.39
2022-09-27T03:54:30.443Z,16.17
2022-09-27T03:55:30.426Z,16.12
2022-09-27T03:56:30.426Z,16.05
2022-09-27T03:57:30.470Z,16.11
2022-09-27T03:58:30.419Z,16.08
2022-09-27T03:59:30.427Z,15.92
2022-09-27T04:00:30.421Z,16.00
2022-09-27T04:01:30.490Z,15.92
2022-09-27T04:02:30.455Z,15.94
2022-09-27T04:03:30.421Z,15.89
2022-09-27T04:04:30.418Z,15.90
2022-09-27T04:05:30.419Z,15.92
2022-09-27T04:06:30.421Z,15.90
2022-09-27T04:07:30.413Z,15.97
2022-09-27T04:08:30.424Z,15.92
2022-09-27T04:09:30.414Z,15.89
2022-09-27T04:10:30.449Z,15.86
2022-09-27T04:11:30.415Z,15.97
2022-09-27T04:12:30.423Z,15.93
2022-09-27T04:13:30.442Z,15.87
2022-09-27T04:14:30.422Z,16.01
2022-09-27T04:15:30.435Z,15.87
2022-09-27T04:16:30.441Z,15.90
2022-09-27T04:17:30.411Z,15.86
2022-09-27T04:18:30.415Z,15.97
2022-09-27T04:19:30.410Z,15.92
2022-09-27T04:20:30.409Z,15.96
2022-09-27T04:21:30.422Z,15.93
2022-09-27T04:22:30.409Z,15.93
2022-09-27T04:23:30.439Z,15.87
2022-09-27T04:24:30.407Z,15.93
2022-09-27T04:25:30.405Z,15.96
2022-09-27T04:26:30.424Z,15.92
2022-09-27T04:27:30.402Z,15.93
2022-09-27T04:28:30.403Z,15.89
2022-09-27T04:29:30.408Z,16.00
2022-09-27T04:30:30.442Z,15.89
2022-09-27T04:31:30.550Z,16.01
2022-09-27T04:32:30.400Z,15.83
2022-09-27T04:33:30.451Z,15.96
2022-09-27T04:34:30.397Z,15.89
2022-09-27T04:35:30.399Z,15.90
2022-09-27T04:36:30.402Z,15.96
2022-09-27T04:37:30.399Z,16.04
2022-09-27T04:38:30.412Z,15.96
2022-09-27T04:39:30.398Z,15.93
2022-09-27T04:40:30.495Z,16.00
2022-09-27T04:41:30.394Z,15.94
2022-09-27T04:42:30.426Z,16.09
2022-09-27T04:43:30.396Z,16.02
2022-09-27T04:44:30.394Z,16.04
2022-09-27T04:45:30.395Z,15.96
2022-09-27T04:46:30.450Z,15.92
2022-09-27T04:47:30.395Z,16.01
2022-09-27T04:48:30.393Z,15.92
2022-09-27T04:49:30.391Z,15.97
2022-09-27T04:50:34.506Z,15.97
2022-09-27T04:51:30.422Z,15.93
2022-09-27T04:52:30.392Z,15.87
2022-09-27T04:53:30.388Z,15.94
2022-09-27T04:54:30.389Z,15.87
2022-09-27T04:55:30.395Z,15.89
2022-09-27T04:56:30.388Z,15.97
2022-09-27T04:57:30.387Z,15.94
2022-09-27T04:58:30.411Z,15.94
2022-09-27T04:59:30.385Z,15.97
2022-09-27T05:00:30.383Z,16.02
2022-09-27T05:01:30.502Z,16.07
2022-09-27T05:02:30.465Z,16.11
2022-09-27T05:03:30.381Z,16.02
2022-09-27T05:04:30.381Z,16.17
2022-09-27T05:05:30.386Z,16.02
2022-09-27T05:06:30.380Z,15.96
2022-09-27T05:07:30.381Z,15.97
2022-09-27T05:08:30.381Z,16.00
2022-09-27T05:09:30.378Z,15.97
2022-09-27T05:10:30.384Z,16.04
2022-09-27T05:11:30.379Z,16.09
2022-09-27T05:12:30.377Z,15.96
2022-09-27T05:13:30.378Z,15.86
2022-09-27T05:14:30.410Z,15.90
2022-09-27T05:15:30.374Z,15.92
2022-09-27T05:16:33.327Z,16.02
2022-09-27T05:17:30.375Z,15.89
2022-09-27T05:18:30.376Z,15.90
2022-09-27T05:19:30.372Z,15.92
2022-09-27T05:20:30.374Z,15.90
2022-09-27T05:21:30.380Z,15.92
2022-09-27T05:22:30.375Z,15.90
2022-09-27T05:23:30.369Z,15.84
2022-09-27T05:24:30.376Z,15.87
2022-09-27T05:25:30.369Z,15.94
2022-09-27T05:26:30.372Z,15.92
2022-09-27T05:27:30.364Z,15.84
2022-09-27T05:28:30.371Z,15.89
2022-09-27T05:29:30.368Z,15.92
2022-09-27T05:30:30.429Z,15.92
2022-09-27T05:31:30.367Z,15.90
2022-09-27T05:32:30.366Z,15.69
2022-09-27T05:33:30.363Z,15.68
2022-09-27T05:34:30.372Z,15.76
2022-09-27T05:35:30.365Z,15.71
2022-09-27T05:36:30.364Z,15.71
2022-09-27T05:37:30.366Z,15.67
2022-09-27T05:38:30.361Z,15.62
2022-09-27T05:39:30.362Z,15.67
2022-09-27T05:40:41.414Z,15.60
2022-09-27T05:41:30.538Z,15.60
2022-09-27T05:42:30.362Z,15.64
2022-09-27T05:43:30.412Z,15.67
2022-09-27T05:44:30.358Z,15.60
2022-09-27T05:45:30.353Z,15.46
2022-09-27T05:46:30.476Z,15.44
2022-09-27T05:47:30.357Z,15.38
2022-09-27T05:48:30.369Z,15.34
2022-09-27T05:49:30.359Z,15.14
2022-09-27T05:50:30.357Z,15.21
2022-09-27T05:51:30.355Z,15.11
2022-09-27T05:52:30.353Z,15.11
2022-09-27T05:53:30.357Z,15.16
2022-09-27T05:54:30.360Z,15.14
2022-09-27T05:55:30.346Z,15.20
2022-09-27T05:56:30.350Z,15.03
2022-09-27T05:57:30.346Z,15.07
2022-09-27T05:58:30.348Z,15.23
2022-09-27T05:59:30.348Z,15.14
2022-09-27T06:00:30.349Z,15.21
2022-09-27T06:01:30.417Z,15.23
2022-09-27T06:02:30.406Z,15.21
2022-09-27T06:03:30.348Z,15.32
2022-09-27T06:04:30.348Z,15.39
2022-09-27T06:05:30.346Z,15.50
2022-09-27T06:06:30.343Z,15.44
2022-09-27T06:07:30.342Z,15.43
2022-09-27T06:08:30.340Z,15.39
2022-09-27T06:09:30.342Z,15.38
2022-09-27T06:10:30.337Z,15.41
2022-09-27T06:11:30.338Z,15.25
2022-09-27T06:12:30.337Z,15.27
2022-09-27T06:13:30.337Z,15.10
2022-09-27T06:14:30.334Z,15.17
2022-09-27T06:15:30.333Z,15.11
2022-09-27T06:16:30.383Z,15.02
2022-09-27T06:17:30.331Z,15.02
2022-09-27T06:18:30.357Z,15.11
2022-09-27T06:19:30.330Z,15.10
2022-09-27T06:20:30.333Z,15.06
2022-09-27T06:21:30.331Z,14.99
2022-09-27T06:22:30.332Z,15.13
2022-09-27T06:23:30.326Z,15.01
2022-09-27T06:24:30.330Z,15.07
2022-09-27T06:25:30.327Z,15.06
2022-09-27T06:26:30.332Z,15.16
2022-09-27T06:27:30.322Z,15.19
2022-09-27T06:28:30.336Z,15.27
2022-09-27T06:29:30.324Z,15.16
2022-09-27T06:30:30.368Z,15.28
2022-09-27T06:31:30.330Z,15.23
2022-09-27T06:32:30.322Z,15.23
2022-09-27T06:33:30.323Z,15.25
2022-09-27T06:34:30.350Z,15.29
2022-09-27T06:35:30.326Z,15.36
2022-09-27T06:36:30.327Z,15.41
2022-09-27T06:37:30.341Z,15.41
2022-09-27T06:38:30.316Z,15.36
2022-09-27T06:39:30.317Z,15.41
2022-09-27T06:40:30.352Z,15.49
2022-09-27T06:41:30.320Z,15.53
2022-09-27T06:42:30.324Z,15.43
2022-09-27T06:43:30.364Z,15.41
2022-09-27T06:44:30.319Z,15.34
2022-09-27T06:45:30.311Z,15.41
2022-09-27T06:46:30.319Z,15.47
2022-09-27T06:47:30.310Z,15.44
2022-09-27T06:48:30.308Z,15.51
2022-09-27T06:49:30.314Z,15.56
2022-09-27T06:50:30.339Z,15.59
2022-09-27T06:51:30.309Z,15.56
2022-09-27T06:52:30.308Z,15.59
2022-09-27T06:53:30.311Z,15.64
2022-09-27T06:54:30.307Z,15.44
2022-09-27T06:55:30.303Z,15.47
2022-09-27T06:56:30.303Z,15.46
2022-09-27T06:57:30.394Z,15.43
2022-09-27T06:58:30.304Z,15.47
2022-09-27T06:59:30.304Z,15.47
2022-09-27T07:00:30.299Z,15.43
2022-09-27T07:01:30.455Z,15.54
2022-09-27T07:02:30.360Z,15.51
2022-09-27T07:03:33.781Z,15.46
2022-09-27T07:04:30.300Z,15.56
2022-09-27T07:05:30.297Z,15.41
2022-09-27T07:06:30.321Z,15.35
2022-09-27T07:07:30.294Z,15.53
2022-09-27T07:08:30.296Z,15.51
2022-09-27T07:09:30.294Z,15.41
2022-09-27T07:10:30.299Z,15.51
2022-09-27T07:11:30.289Z,15.27
2022-09-27T07:12:30.294Z,15.28
2022-09-27T07:13:30.290Z,15.29
2022-09-27T07:14:30.292Z,15.09
2022-09-27T07:15:30.291Z,15.10
2022-09-27T07:16:30.351Z,15.09
2022-09-27T07:17:30.286Z,15.19
2022-09-27T07:18:30.288Z,15.29
2022-09-27T07:19:30.292Z,15.36
2022-09-27T07:20:30.286Z,15.31
2022-09-27T07:21:30.285Z,15.36
2022-09-27T07:22:30.338Z,15.27
2022-09-27T07:23:30.281Z,15.19
2022-09-27T07:24:30.285Z,15.11
2022-09-27T07:25:30.280Z,15.32
2022-09-27T07:26:30.279Z,15.41
2022-09-27T07:27:30.281Z,15.43
2022-09-27T07:28:30.278Z,15.51
2022-09-27T07:29:30.281Z,15.56
2022-09-27T07:30:30.303Z,15.51
2022-09-27T07:31:30.275Z,15.51
2022-09-27T07:32:30.276Z,15.49
2022-09-27T07:33:30.277Z,15.62
2022-09-27T07:34:30.277Z,15.62
2022-09-27T07:35:30.280Z,15.71
2022-09-27T07:36:30.278Z,15.75
2022-09-27T07:37:30.268Z,15.67
2022-09-27T07:38:30.292Z,15.62
2022-09-27T07:39:30.273Z,15.71
2022-09-27T07:40:30.360Z,15.69
2022-09-27T07:41:30.271Z,15.87
2022-09-27T07:42:30.271Z,15.89
2022-09-27T07:43:30.320Z,15.84
2022-09-27T07:44:30.270Z,15.90
2022-09-27T07:45:30.366Z,15.86
2022-09-27T07:46:30.270Z,15.60
2022-09-27T07:47:30.261Z,15.54
2022-09-27T07:48:30.273Z,15.60
2022-09-27T07:49:30.261Z,15.64
2022-09-27T07:50:30.264Z,15.65
2022-09-27T07:51:30.263Z,15.47
2022-09-27T07:52:30.264Z,15.51
2022-09-27T07:53:30.258Z,15.62
2022-09-27T07:54:30.305Z,15.71
2022-09-27T07:55:30.256Z,15.64
2022-09-27T07:56:30.262Z,15.62
2022-09-27T07:57:30.261Z,15.64
2022-09-27T07:58:30.257Z,15.56
2022-09-27T07:59:30.257Z,15.46
2022-09-27T08:00:30.255Z,15.50
2022-09-27T08:01:30.307Z,15.51
2022-09-27T08:02:30.282Z,15.60
2022-09-27T08:03:30.255Z,15.68
2022-09-27T08:04:30.255Z,15.71
2022-09-27T08:05:30.252Z,15.65
2022-09-27T08:06:30.252Z,15.68
2022-09-27T08:07:30.252Z,15.60
2022-09-27T08:08:30.254Z,15.68
2022-09-27T08:09:30.257Z,15.59
2022-09-27T08:10:30.273Z,15.64
2022-09-27T08:11:30.256Z,15.72
2022-09-27T08:12:30.249Z,15.67
2022-09-27T08:13:30.245Z,15.65
2022-09-27T08:14:30.248Z,15.57
2022-09-27T08:15:30.241Z,15.60
2022-09-27T08:16:30.324Z,15.68
2022-09-27T08:17:30.247Z,15.71
2022-09-27T08:18:30.245Z,15.54
2022-09-27T08:19:30.240Z,15.43
2022-09-27T08:20:30.240Z,15.44
2022-09-27T08:21:30.242Z,15.57
2022-09-27T08:22:30.243Z,15.60
2022-09-27T08:23:30.241Z,15.60
2022-09-27T08:24:30.239Z,15.59
2022-09-27T08:25:30.238Z,15.68
2022-09-27T08:26:30.289Z,15.74
2022-09-27T08:27:30.238Z,15.62
2022-09-27T08:28:30.236Z,15.49
2022-09-27T08:29:30.242Z,15.65
2022-09-27T08:30:30.234Z,15.62
2022-09-27T08:31:30.333Z,15.59
2022-09-27T08:32:30.235Z,15.41
2022-09-27T08:33:33.527Z,15.65
2022-09-27T08:34:30.236Z,15.62
2022-09-27T08:35:30.233Z,15.64
2022-09-27T08:36:30.230Z,15.53
2022-09-27T08:37:30.227Z,15.68
2022-09-27T08:38:30.230Z,15.62
2022-09-27T08:39:30.225Z,15.69
2022-09-27T08:40:30.258Z,15.72
2022-09-27T08:41:30.228Z,15.83
2022-09-27T08:42:30.251Z,15.87
2022-09-27T08:43:30.277Z,15.96
2022-09-27T08:44:30.229Z,15.82
2022-09-27T08:45:30.250Z,15.75
2022-09-27T08:46:30.227Z,15.83
2022-09-27T08:47:30.219Z,15.74
2022-09-27T08:48:30.227Z,15.72
2022-09-27T08:49:30.227Z,15.82
2022-09-27T08:50:30.217Z,15.75
2022-09-27T08:51:30.224Z,15.69
2022-09-27T08:52:30.223Z,15.86
2022-09-27T08:53:30.221Z,15.92
2022-09-27T08:54:30.226Z,15.94
2022-09-27T08:55:30.211Z,15.92
2022-09-27T08:56:30.215Z,15.97
2022-09-27T08:57:30.219Z,16.00
2022-09-27T08:58:30.240Z,15.86
2022-09-27T08:59:30.216Z,16.02
2022-09-27T09:00:30.214Z,16.07
2022-09-27T09:01:30.291Z,15.97
2022-09-27T09:02:30.273Z,15.97
2022-09-27T09:03:30.209Z,16.08
2022-09-27T09:04:30.215Z,15.97
2022-09-27T09:05:30.212Z,16.01
2022-09-27T09:06:30.208Z,15.89
2022-09-27T09:07:30.207Z,15.90
2022-09-27T09:08:30.205Z,15.87
2022-09-27T09:09:30.206Z,15.90
2022-09-27T09:10:30.204Z,15.84
2022-09-27T09:11:30.207Z,15.72
2022-09-27T09:12:30.208Z,15.84
2022-09-27T09:13:30.205Z,15.94
2022-09-27T09:14:30.229Z,16.00
2022-09-27T09:15:30.201Z,15.92
2022-09-27T09:16:30.511Z,15.89
2022-09-27T09:17:30.197Z,16.04
2022-09-27T09:18:30.203Z,15.96
2022-09-27T09:19:30.201Z,16.01
2022-09-27T09:20:30.197Z,16.01
2022-09-27T09:21:30.205Z,15.97
2022-09-27T09:22:30.195Z,15.92
2022-09-27T09:23:30.198Z,15.93
2022-09-27T09:24:30.196Z,16.02
2022-09-27T09:25:30.197Z,16.09
2022-09-27T09:26:30.199Z,15.94
2022-09-27T09:27:30.201Z,15.92
2022-09-27T09:28:30.194Z,16.02
2022-09-27T09:29:30.198Z,16.11
2022-09-27T09:30:30.228Z,16.15
2022-09-27T09:31:30.289Z,16.28
2022-09-27T09:32:30.193Z,16.07
2022-09-27T09:33:30.194Z,16.28
2022-09-27T09:34:30.190Z,16.25
2022-09-27T09:35:30.189Z,16.24
2022-09-27T09:36:30.189Z,16.21
2022-09-27T09:37:30.203Z,16.39
2022-09-27T09:38:30.189Z,16.28
2022-09-27T09:39:30.189Z,16.34
2022-09-27T09:40:30.242Z,16.31
2022-09-27T09:41:30.188Z,16.45
2022-09-27T09:42:30.186Z,16.48
2022-09-27T09:43:30.241Z,16.49
2022-09-27T09:44:30.185Z,16.45
2022-09-27T09:45:30.255Z,16.38
2022-09-27T09:46:30.213Z,16.42
2022-09-27T09:47:30.180Z,16.41
2022-09-27T09:48:30.181Z,16.39
2022-09-27T09:49:30.184Z,16.28
2022-09-27T09:50:30.178Z,16.30
2022-09-27T09:51:30.184Z,16.35
2022-09-27T09:52:30.178Z,16.41
2022-09-27T09:53:30.182Z,16.43
2022-09-27T09:54:30.181Z,16.41
2022-09-27T09:55:30.180Z,16.31
2022-09-27T09:56:30.176Z,16.30
2022-09-27T09:57:30.180Z,16.50
2022-09-27T09:58:30.179Z,16.58
2022-09-27T09:59:30.174Z,16.43
2022-09-27T10:00:30.178Z,16.46
2022-09-27T10:01:30.200Z,16.45
2022-09-27T10:02:30.254Z,16.64
2022-09-27T10:03:30.177Z,16.64
2022-09-27T10:04:30.169Z,16.66
2022-09-27T10:05:30.174Z,16.70
2022-09-27T10:06:30.172Z,16.93
2022-09-27T10:07:30.175Z,16.76
2022-09-27T10:08:30.173Z,16.68
2022-09-27T10:09:30.175Z,16.78
2022-09-27T10:10:30.169Z,16.68
2022-09-27T10:11:30.173Z,16.66
2022-09-27T10:12:30.168Z,16.64
2022-09-27T10:13:30.169Z,16.73
2022-09-27T10:14:30.166Z,16.64
2022-09-27T10:15:30.170Z,16.67
2022-09-27T10:16:30.206Z,16.70
2022-09-27T10:17:30.169Z,16.66
2022-09-27T10:18:30.191Z,16.57
2022-09-27T10:19:30.175Z,16.56
2022-09-27T10:20:30.166Z,16.58
2022-09-27T10:21:30.164Z,16.60
2022-09-27T10:22:30.161Z,16.64
2022-09-27T10:23:30.167Z,16.67
2022-09-27T10:24:30.160Z,16.63
2022-09-27T10:25:30.167Z,16.58
2022-09-27T10:26:30.161Z,16.58
2022-09-27T10:27:30.164Z,16.58
2022-09-27T10:28:30.159Z,16.52
2022-09-27T10:29:34.864Z,16.41
2022-09-27T10:30:30.163Z,16.57
2022-09-27T10:31:30.174Z,16.45
2022-09-27T10:32:30.157Z,16.45
2022-09-27T10:33:30.166Z,16.46
2022-09-27T10:34:30.189Z,16.56
2022-09-27T10:35:30.157Z,16.43
2022-09-27T10:36:30.154Z,16.41
2022-09-27T10:37:30.162Z,16.38
2022-09-27T10:38:30.162Z,16.41
2022-09-27T10:39:30.156Z,16.15
2022-09-27T10:40:30.218Z,16.41
2022-09-27T10:41:30.153Z,16.46
2022-09-27T10:42:30.155Z,16.41
2022-09-27T10:43:30.277Z,16.49
2022-09-27T10:44:30.151Z,16.50
2022-09-27T10:45:30.199Z,16.48
2022-09-27T10:46:30.149Z,16.52
2022-09-27T10:47:30.151Z,16.64
2022-09-27T10:48:30.149Z,16.76
2022-09-27T10:49:30.152Z,16.76
2022-09-27T10:50:59.301Z,17.19
2022-09-27T10:51:30.147Z,17.79
2022-09-27T10:52:30.150Z,18.08
2022-09-27T10:53:30.153Z,18.70
2022-09-27T10:54:30.150Z,19.28
2022-09-27T10:55:30.147Z,19.83
2022-09-27T10:56:30.145Z,20.43
2022-09-27T10:57:30.153Z,20.50
2022-09-27T10:58:30.148Z,20.77
2022-09-27T10:59:30.145Z,20.67
2022-09-27T11:00:30.146Z,20.84
2022-09-27T11:01:30.145Z,20.20
2022-09-27T11:02:30.144Z,19.83
2022-09-27T11:03:30.144Z,19.48
2022-09-27T11:04:30.185Z,19.22
2022-09-27T11:05:30.145Z,19.00
2022-09-27T11:06:30.225Z,18.98
2022-09-27T11:07:30.142Z,18.98
2022-09-27T11:08:30.164Z,19.58
2022-09-27T11:09:30.142Z,20.54
2022-09-27T11:10:32.923Z,21.49
2022-09-27T11:11:30.152Z,22.00
2022-09-27T11:12:30.145Z,22.75
2022-09-27T11:13:30.150Z,23.61
2022-09-27T11:14:30.139Z,23.68
2022-09-27T11:15:30.144Z,23.33
2022-09-27T11:16:30.215Z,22.68
2022-09-27T11:17:30.148Z,21.67
2022-09-27T11:18:30.150Z,20.92
2022-09-27T11:19:30.141Z,20.50
2022-09-27T11:20:30.145Z,20.21
2022-09-27T11:21:30.162Z,19.88
2022-09-27T11:22:30.260Z,19.83
2022-09-27T11:23:30.143Z,19.88
2022-09-27T11:24:30.142Z,19.74
2022-09-27T11:25:32.035Z,19.55
2022-09-27T11:26:30.148Z,19.40
2022-09-27T11:27:30.143Z,19.11
2022-09-27T11:28:30.144Z,18.99
2022-09-27T11:29:30.147Z,18.95
2022-09-27T11:30:30.148Z,18.94
2022-09-27T11:31:30.189Z,18.94
2022-09-27T11:32:30.144Z,18.94
2022-09-27T11:33:30.139Z,19.26
2022-09-27T11:34:30.152Z,19.28
2022-09-27T11:35:30.143Z,19.16
2022-09-27T11:36:30.145Z,19.11
2022-09-27T11:37:30.142Z,19.13
2022-09-27T11:38:51.626Z,19.23
2022-09-27T11:39:30.147Z,18.91
2022-09-27T11:40:30.187Z,18.94
2022-09-27T11:41:30.148Z,18.91
2022-09-27T11:42:30.140Z,18.95
2022-09-27T11:43:30.152Z,19.23
2022-09-27T11:44:30.142Z,19.16
2022-09-27T11:45:45.393Z,19.41
2022-09-27T11:46:38.532Z,19.56
2022-09-27T11:47:30.309Z,19.48
2022-09-27T11:48:30.147Z,19.77
2022-09-27T11:49:30.145Z,20.06
2022-09-27T11:50:30.145Z,20.16
2022-09-27T11:51:30.150Z,20.31
2022-09-27T11:52:30.152Z,20.32
2022-09-27T11:53:30.147Z,20.14
2022-09-27T11:54:30.164Z,20.08
2022-09-27T11:55:30.144Z,20.03
2022-09-27T11:56:30.143Z,19.78
2022-09-27T11:57:30.151Z,19.71
2022-09-27T11:58:30.148Z,19.68
2022-09-27T11:59:30.145Z,19.55
2022-09-27T12:00:30.147Z,19.11
2022-09-27T12:01:30.148Z,18.95
2022-09-27T12:02:30.269Z,18.73
2022-09-27T12:03:30.144Z,18.67
2022-09-27T12:04:30.147Z,18.69
2022-09-27T12:05:30.145Z,18.67
2022-09-27T12:06:30.147Z,18.41
2022-09-27T12:07:30.145Z,18.45
2022-09-27T12:08:30.144Z,18.35
2022-09-27T12:09:30.149Z,18.17
2022-09-27T12:10:30.174Z,17.55
2022-09-27T12:11:30.146Z,16.97
2022-09-27T12:12:30.151Z,16.12
2022-09-27T12:13:30.143Z,15.84
2022-09-27T12:14:30.150Z,15.50
2022-09-27T12:15:30.147Z,15.06
2022-09-27T12:16:30.147Z,14.96
2022-09-27T12:17:30.158Z,14.83
2022-09-27T12:18:30.145Z,14.62
2022-09-27T12:19:30.141Z,14.55
2022-09-27T12:20:30.142Z,14.69
2022-09-27T12:21:30.146Z,14.80
2022-09-27T12:22:57.043Z,14.78
2022-09-27T12:23:34.564Z,14.65
2022-09-27T12:24:30.823Z,14.70
2022-09-27T12:25:30.148Z,14.69
2022-09-27T12:26:30.165Z,14.72
2022-09-27T12:27:30.138Z,14.72
2022-09-27T12:28:30.146Z,14.72
2022-09-27T12:29:30.143Z,14.65
2022-09-27T12:30:30.165Z,14.70
2022-09-27T12:31:30.857Z,14.61
2022-09-27T12:32:30.145Z,14.69
2022-09-27T12:33:30.135Z,14.78
2022-09-27T12:34:30.140Z,14.75
2022-09-27T12:35:30.145Z,14.77
2022-09-27T12:36:31.311Z,14.77
2022-09-27T12:37:30.134Z,14.77
2022-09-27T12:38:30.134Z,14.84
2022-09-27T12:39:30.143Z,14.89
2022-09-27T12:40:30.208Z,14.99
2022-09-27T12:41:30.184Z,14.80
2022-09-27T12:42:30.211Z,14.95
2022-09-27T12:43:30.131Z,15.02
2022-09-27T12:44:30.128Z,14.94
2022-09-27T12:45:30.134Z,14.86
2022-09-27T12:46:30.224Z,15.01
2022-09-27T12:47:30.149Z,15.19
2022-09-27T12:48:30.130Z,15.43
2022-09-27T12:49:30.128Z,15.51
2022-09-27T12:50:30.142Z,15.62
2022-09-27T12:51:30.125Z,15.75
2022-09-27T12:52:30.123Z,15.72